Time;durP1;ratioP1;P1;durP2;ratioP2;P2;SDS_P1;SDS_P2;PMS_P1;PMS_P2;Temp;Humidity;BMP_temperature;BMP_pressure;BME280_temperature;BME280_humidity;BME280_pressure;Samples;Min_cycle;Max_cycle;Signal;HPM_P1;HPM_P2
2021/12/26 00:01:45;;;;;;;;;;;;;;;15.23;43.44;100953.81;5042316;28;19924;-47
2021/12/26 00:04:14;;;;;;;;;;;;;;;15.22;43.46;100954.81;5048699;28;19921;-49
2021/12/26 00:06:40;;;;;;;;;;;;;;;15.23;43.39;100951.13;5042749;28;19913;-47
2021/12/26 00:09:05;;;;;;;;;;;;;;;15.21;43.47;100950.44;5042732;28;19920;-47
2021/12/26 00:11:30;;;;;;;;;;;;;;;15.20;43.44;100941.53;5042772;28;19913;-47
2021/12/26 00:13:55;;;;;;;;;;;;;;;15.20;43.40;100935.34;5042677;28;20188;-48
2021/12/26 00:16:21;;;;;;;;;;;;;;;15.19;43.38;100931.81;5042529;28;19913;-51
2021/12/26 00:18:47;;;;;;;;;;;;;;;15.19;43.43;100937.16;5041973;28;19913;-49
2021/12/26 00:21:17;;;;;;;;;;;;;;;15.20;43.42;100933.50;5042897;28;19935;-49
2021/12/26 00:23:42;;;;;;;;;;;;;;;15.20;43.42;100935.34;5042268;28;20014;-46
2021/12/26 00:26:07;;;;;;;;;;;;;;;15.19;43.37;100929.13;5046325;28;19917;-46
2021/12/26 00:28:32;;;;;;;;;;;;;;;15.20;43.42;100932.66;5046499;28;19976;-47
2021/12/26 00:30:57;;;;;;;;;;;;;;;15.20;43.29;100932.66;5046731;28;19999;-45
2021/12/26 00:33:23;;;;;;;;;;;;;;;15.20;43.40;100928.13;5045978;28;19948;-46
2021/12/26 00:35:48;;;;;;;;;;;;;;;15.19;43.34;100931.81;5046363;28;19917;-47
2021/12/26 00:38:13;;;;;;;;;;;;;;;15.19;43.35;100929.13;5046543;28;19948;-46
2021/12/26 00:40:39;;;;;;;;;;;;;;;15.19;43.37;100936.34;5046545;28;19913;-49
2021/12/26 00:43:04;;;;;;;;;;;;;;;15.19;43.31;100939.00;5046356;28;19917;-44
2021/12/26 00:45:29;;;;;;;;;;;;;;;15.19;43.36;100939.00;5046295;28;19924;-51
2021/12/26 00:47:54;;;;;;;;;;;;;;;15.19;43.35;100936.34;5045483;28;19920;-49
2021/12/26 00:50:22;;;;;;;;;;;;;;;15.19;43.36;100941.69;5046415;28;19921;-47
2021/12/26 00:52:47;;;;;;;;;;;;;;;15.19;43.30;100930.97;5046220;28;19917;-48
2021/12/26 00:55:13;;;;;;;;;;;;;;;15.18;43.31;100935.50;5045484;28;20417;-48
2021/12/26 00:57:38;;;;;;;;;;;;;;;15.18;43.34;100930.13;5046220;28;19913;-48
2021/12/26 01:00:08;;;;;;;;;;;;;;;15.18;43.24;100924.78;5045850;28;20039;-48
2021/12/26 01:02:33;;;;;;;;;;;;;;;15.18;43.27;100921.25;5045319;28;19968;-47
2021/12/26 01:04:58;;;;;;;;;;;;;;;15.18;43.27;100922.09;5045961;28;20012;-50
2021/12/26 01:07:36;;;;;;;;;;;;;;;15.17;43.29;100930.28;5046118;28;19936;-44
2021/12/26 01:10:02;;;;;;;;;;;;;;;15.17;43.22;100923.09;5046218;28;19913;-49
2021/12/26 01:12:29;;;;;;;;;;;;;;;15.17;43.22;100919.56;5046145;28;19913;-47
2021/12/26 01:14:59;;;;;;;;;;;;;;;15.17;43.20;100920.41;5045693;28;19913;-46
2021/12/26 01:17:26;;;;;;;;;;;;;;;15.17;43.22;100920.41;5044955;28;19928;-50
2021/12/26 01:19:53;;;;;;;;;;;;;;;15.06;43.18;100903.66;5045942;28;19919;-49
2021/12/26 01:22:19;;;;;;;;;;;;;;;15.17;43.25;100914.22;5045710;28;19913;-48
2021/12/26 01:24:44;;;;;;;;;;;;;;;15.16;43.24;100920.53;5045266;28;19940;-48
2021/12/26 01:27:10;;;;;;;;;;;;;;;15.14;43.20;100915.34;5045832;28;20401;-45
2021/12/26 01:29:36;;;;;;;;;;;;;;;15.13;43.21;100918.16;5044500;28;19924;-48
2021/12/26 01:32:01;;;;;;;;;;;;;;;15.12;43.14;100921.81;5045435;28;19914;-49
2021/12/26 01:34:26;;;;;;;;;;;;;;;15.12;43.21;100913.78;5044962;28;19913;-48
2021/12/26 01:36:52;;;;;;;;;;;;;;;15.11;43.12;100912.94;5044545;28;19913;-48
2021/12/26 01:39:17;;;;;;;;;;;;;;;15.10;43.14;100911.25;5045639;28;19958;-46
2021/12/26 01:41:44;;;;;;;;;;;;;;;15.10;43.15;100910.41;5045295;28;19921;-49
2021/12/26 01:44:11;;;;;;;;;;;;;;;15.10;43.25;100905.91;5045120;28;19924;-50
2021/12/26 01:46:37;;;;;;;;;;;;;;;15.09;43.18;100904.22;5044962;28;19913;-45
2021/12/26 01:49:22;;;;;;;;;;;;;;;15.09;43.07;100906.91;5044864;28;19921;-49
2021/12/26 01:51:50;;;;;;;;;;;;;;;15.09;43.13;100906.91;5044553;28;19962;-46
2021/12/26 01:54:26;;;;;;;;;;;;;;;15.09;43.19;100901.53;5045072;28;19921;-44
2021/12/26 01:56:52;;;;;;;;;;;;;;;15.09;43.18;100898.88;5043819;28;20220;-49
2021/12/26 01:59:17;;;;;;;;;;;;;;;15.10;43.18;100899.72;5045186;28;19967;-48
2021/12/26 02:01:42;;;;;;;;;;;;;;;15.09;43.08;100904.22;5044791;28;19913;-50
2021/12/26 02:04:07;;;;;;;;;;;;;;;15.10;43.04;100910.41;5044484;28;20032;-49
2021/12/26 02:06:32;;;;;;;;;;;;;;;15.09;43.01;100914.09;5043840;28;19925;-48
2021/12/26 02:08:58;;;;;;;;;;;;;;;15.08;43.14;100904.34;5045005;28;19913;-47
2021/12/26 02:11:23;;;;;;;;;;;;;;;15.07;43.02;100918.72;5045103;28;19917;-44
2021/12/26 02:13:48;;;;;;;;;;;;;;;15.07;43.15;100918.72;5044525;28;19917;-45
2021/12/26 02:16:13;;;;;;;;;;;;;;;15.05;43.07;100910.84;5044526;28;19912;-48
2021/12/26 02:18:38;;;;;;;;;;;;;;;15.06;43.15;100909.00;5043830;28;19917;-47
2021/12/26 02:21:17;;;;;;;;;;;;;;;15.04;43.08;100903.81;5044712;28;19914;-49
2021/12/26 02:23:51;;;;;;;;;;;;;;;15.04;43.12;100905.63;5044319;28;19927;-44
2021/12/26 02:29:00;;;;;;;;;;;;;;;15.03;43.13;100907.44;5044466;28;19948;-49
2021/12/26 02:31:25;;;;;;;;;;;;;;;15.03;43.08;100909.28;5044578;28;19917;-48
2021/12/26 02:33:50;;;;;;;;;;;;;;;15.03;43.12;100895.91;5043419;28;19999;-47
2021/12/26 02:36:15;;;;;;;;;;;;;;;15.02;43.03;100900.41;5044488;28;19943;-47
2021/12/26 02:38:41;;;;;;;;;;;;;;;15.02;42.99;100896.91;5043037;28;19935;-46
2021/12/26 02:41:06;;;;;;;;;;;;;;;15.00;42.99;100892.53;5044354;28;19952;-47
2021/12/26 02:43:33;;;;;;;;;;;;;;;15.01;42.98;100896.06;5042273;28;19921;-45
2021/12/26 02:46:00;;;;;;;;;;;;;;;15.00;43.08;100889.03;5043162;28;19920;-47
2021/12/26 02:48:25;;;;;;;;;;;;;;;15.01;43.00;100888.03;5042658;28;20285;-49
2021/12/26 02:50:56;;;;;;;;;;;;;;;15.00;42.98;100892.53;5044084;28;20430;-44
2021/12/26 02:53:21;;;;;;;;;;;;;;;14.99;43.01;100890.84;5044375;28;19921;-44
2021/12/26 02:55:47;;;;;;;;;;;;;;;14.99;43.11;100887.31;5029965;28;20342;-45
2021/12/26 02:58:12;;;;;;;;;;;;;;;14.97;43.05;100889.28;5024180;28;19936;-47
2021/12/26 03:00:40;;;;;;;;;;;;;;;14.97;43.01;100886.63;5024138;28;19914;-44
2021/12/26 03:03:06;;;;;;;;;;;;;;;14.96;43.09;100892.97;5041227;28;20479;-49
2021/12/26 03:05:33;;;;;;;;;;;;;;;14.96;43.09;100893.81;5043976;28;19980;-47
2021/12/26 03:07:58;;;;;;;;;;;;;;;14.95;43.04;100896.59;5043854;28;19920;-46
2021/12/26 03:10:25;;;;;;;;;;;;;;;14.94;43.08;100889.56;5043890;28;19913;-45
2021/12/26 03:12:51;;;;;;;;;;;;;;;14.93;43.08;100878.03;5058879;28;19996;-49
2021/12/26 03:15:16;;;;;;;;;;;;;;;14.93;43.02;100878.03;5043590;28;19917;-45
2021/12/26 03:17:42;;;;;;;;;;;;;;;14.93;43.07;100872.66;5042591;28;19928;-47
2021/12/26 03:20:08;;;;;;;;;;;;;;;14.91;43.06;100873.78;5043603;28;19921;-47
2021/12/26 03:22:33;;;;;;;;;;;;;;;14.91;43.10;100865.75;5043395;28;20411;-47
2021/12/26 03:24:58;;;;;;;;;;;;;;;14.92;42.99;100864.78;5043157;28;19989;-45
2021/12/26 03:27:23;;;;;;;;;;;;;;;14.91;43.02;100866.63;5043162;28;19913;-44
2021/12/26 03:29:49;;;;;;;;;;;;;;;14.91;42.96;100863.94;5043386;28;19920;-45
2021/12/26 03:32:14;;;;;;;;;;;;;;;14.91;42.97;100855.91;5043086;28;19996;-47
2021/12/26 03:34:48;;;;;;;;;;;;;;;14.92;42.97;100860.28;5042795;28;19913;-45
2021/12/26 03:37:14;;;;;;;;;;;;;;;14.92;43.09;100862.13;5043252;28;19917;-44
2021/12/26 03:39:39;;;;;;;;;;;;;;;14.91;42.84;100865.75;5043343;28;19920;-46
2021/12/26 03:42:04;;;;;;;;;;;;;;;14.91;42.92;100866.63;5042028;28;19913;-45
2021/12/26 03:44:29;;;;;;;;;;;;;;;14.93;42.98;100866.47;5042882;28;19921;-46
2021/12/26 03:46:54;;;;;;;;;;;;;;;14.92;42.90;100864.78;5042830;28;19976;-45
2021/12/26 03:49:19;;;;;;;;;;;;;;;14.92;42.95;100871.00;5042638;28;19915;-46
2021/12/26 03:51:45;;;;;;;;;;;;;;;14.92;42.91;100862.13;5042967;28;19913;-45
2021/12/26 03:54:10;;;;;;;;;;;;;;;14.91;42.90;100866.63;5042956;28;19921;-47
2021/12/26 03:56:35;;;;;;;;;;;;;;;14.92;42.91;100871.00;5042889;28;19917;-47
2021/12/26 03:59:00;;;;;;;;;;;;;;;14.92;42.88;100872.81;5042651;28;20023;-49
2021/12/26 04:01:26;;;;;;;;;;;;;;;14.91;42.85;100858.59;5043254;28;19964;-49
2021/12/26 04:03:51;;;;;;;;;;;;;;;14.92;42.88;100864.78;5041899;28;20110;-49
2021/12/26 04:06:16;;;;;;;;;;;;;;;14.91;42.92;100857.72;5043046;28;19913;-47
2021/12/26 04:08:42;;;;;;;;;;;;;;;14.90;42.88;100858.72;5042755;28;20016;-46
2021/12/26 04:11:07;;;;;;;;;;;;;;;14.90;42.83;100862.25;5042958;28;19913;-46
2021/12/26 04:13:34;;;;;;;;;;;;;;;14.90;42.76;100861.41;5042453;28;19913;-47
2021/12/26 04:15:59;;;;;;;;;;;;;;;14.89;42.92;100855.22;5043005;28;19919;-46
2021/12/26 04:18:24;;;;;;;;;;;;;;;14.88;42.77;100856.19;5041599;28;19960;-51
2021/12/26 04:20:49;;;;;;;;;;;;;;;14.89;42.83;100851.69;5042859;28;19919;-44
2021/12/26 04:23:15;;;;;;;;;;;;;;;14.88;42.70;100853.53;5042277;28;19992;-48
2021/12/26 04:25:40;;;;;;;;;;;;;;;14.88;42.79;100850.84;5042369;28;19924;-44
2021/12/26 04:28:05;;;;;;;;;;;;;;;14.88;42.80;100858.03;5042465;28;19924;-46
2021/12/26 04:30:31;;;;;;;;;;;;;;;14.88;42.71;100850.84;5042586;28;19924;-49
2021/12/26 04:32:56;;;;;;;;;;;;;;;14.88;42.46;100850.84;5041829;28;19921;-49
2021/12/26 04:35:21;;;;;;;;;;;;;;;14.88;42.72;100847.34;5042678;28;19913;-44
2021/12/26 04:37:47;;;;;;;;;;;;;;;14.88;42.63;100842.81;5042792;28;19960;-47
2021/12/26 04:40:13;;;;;;;;;;;;;;;14.87;42.72;100835.78;5042683;28;19936;-49
2021/12/26 04:42:39;;;;;;;;;;;;;;;14.88;42.70;100836.63;5042492;28;20520;-47
2021/12/26 04:45:07;;;;;;;;;;;;;;;14.88;42.70;100831.28;5042451;28;19917;-47
2021/12/26 04:47:32;;;;;;;;;;;;;;;14.87;42.67;100826.91;5041926;28;19913;-44
2021/12/26 04:49:58;;;;;;;;;;;;;;;14.87;42.69;100825.06;5042417;28;19920;-46
2021/12/26 04:52:23;;;;;;;;;;;;;;;14.87;42.60;100832.25;5042325;28;19917;-48
2021/12/26 04:54:48;;;;;;;;;;;;;;;14.85;42.71;100828.88;5042081;28;19971;-48
2021/12/26 04:57:13;;;;;;;;;;;;;;;14.85;42.60;100834.22;5042513;28;19981;-47
2021/12/26 04:59:38;;;;;;;;;;;;;;;14.84;42.60;100824.50;5042305;28;19921;-47
2021/12/26 05:02:04;;;;;;;;;;;;;;;14.83;42.74;100831.69;5041727;28;19913;-44
2021/12/26 05:04:29;;;;;;;;;;;;;;;14.83;42.70;100829.03;5040410;28;20408;-45
2021/12/26 05:06:54;;;;;;;;;;;;;;;14.84;42.59;100821.84;5042488;28;19913;-47
2021/12/26 05:09:19;;;;;;;;;;;;;;;14.84;42.71;100828.03;5042286;28;19936;-46
2021/12/26 05:11:45;;;;;;;;;;;;;;;14.84;42.62;100827.19;5043899;28;19920;-45
2021/12/26 05:14:10;;;;;;;;;;;;;;;14.85;42.71;100826.19;5045851;28;19940;-45
2021/12/26 05:16:35;;;;;;;;;;;;;;;14.64;42.63;100796.94;5045444;28;19971;-42
2021/12/26 05:19:00;;;;;;;;;;;;;;;14.85;42.66;100821.69;5045363;28;20437;-45
2021/12/26 05:21:25;;;;;;;;;;;;;;;14.85;42.61;100826.19;5045847;28;19913;-45
2021/12/26 05:23:50;;;;;;;;;;;;;;;14.86;42.59;100831.38;5045294;28;20074;-47
2021/12/26 05:26:15;;;;;;;;;;;;;;;14.85;42.64;100816.31;5044241;28;19923;-46
2021/12/26 05:28:41;;;;;;;;;;;;;;;14.86;42.55;100814.50;5045254;28;19917;-45
2021/12/26 05:31:06;;;;;;;;;;;;;;;14.84;42.52;100811.97;5045075;28;19925;-46
2021/12/26 05:33:31;;;;;;;;;;;;;;;14.86;42.75;100818.00;5042614;28;20258;-47
2021/12/26 05:35:56;;;;;;;;;;;;;;;14.85;42.61;100807.47;5045222;28;19935;-47
2021/12/26 05:38:21;;;;;;;;;;;;;;;14.85;42.61;100804.78;5044938;28;19975;-48
2021/12/26 05:40:46;;;;;;;;;;;;;;;14.84;42.55;100806.63;5044793;28;19913;-47
2021/12/26 05:43:12;;;;;;;;;;;;;;;14.85;42.61;100810.13;5044615;28;19922;-47
2021/12/26 05:45:38;;;;;;;;;;;;;;;14.85;42.73;100812.81;5044627;28;19920;-48
2021/12/26 05:48:03;;;;;;;;;;;;;;;14.84;42.78;100808.44;5044033;28;19913;-46
2021/12/26 05:50:28;;;;;;;;;;;;;;;14.74;42.67;100789.75;5044656;28;20381;-44
2021/12/26 05:52:53;;;;;;;;;;;;;;;14.84;42.62;100803.94;5044489;28;19924;-45
2021/12/26 05:55:19;;;;;;;;;;;;;;;14.85;42.73;100802.94;5044064;28;19920;-47
2021/12/26 05:57:44;;;;;;;;;;;;;;;14.86;42.64;100801.09;5044553;28;19913;-46
2021/12/26 06:00:11;;;;;;;;;;;;;;;14.87;42.74;100798.31;5044522;28;19974;-47
2021/12/26 06:02:36;;;;;;;;;;;;;;;14.89;42.65;100792.78;5044516;28;20011;-47
2021/12/26 06:05:01;;;;;;;;;;;;;;;14.91;42.75;100796.16;5043936;28;20018;-48
2021/12/26 06:07:27;;;;;;;;;;;;;;;14.91;42.84;100804.19;5044146;28;19967;-49
2021/12/26 06:09:52;;;;;;;;;;;;;;;14.92;42.79;100795.19;5044435;28;19913;-47
2021/12/26 06:12:18;;;;;;;;;;;;;;;14.93;42.80;100794.19;5039571;28;19971;-46
2021/12/26 06:14:43;;;;;;;;;;;;;;;14.92;42.74;100795.19;5043785;28;19928;-47
2021/12/26 06:17:09;;;;;;;;;;;;;;;14.92;42.83;100790.69;5043696;28;19932;-46
2021/12/26 06:19:34;;;;;;;;;;;;;;;14.92;42.95;100790.69;5042219;28;19914;-48
2021/12/26 06:21:59;;;;;;;;;;;;;;;14.94;42.89;100795.88;5043002;28;19917;-48
2021/12/26 06:24:25;;;;;;;;;;;;;;;14.94;42.95;100786.00;5041053;28;19917;-48
2021/12/26 06:26:50;;;;;;;;;;;;;;;14.95;43.01;100794.88;5043979;28;19917;-46
2021/12/26 06:29:15;;;;;;;;;;;;;;;14.95;42.96;100801.09;5042190;28;19914;-48
2021/12/26 06:31:41;;;;;;;;;;;;;;;14.95;42.96;100794.88;5043100;28;19972;-49
2021/12/26 06:34:06;;;;;;;;;;;;;;;14.94;43.09;100796.72;5043191;28;19917;-49
2021/12/26 06:36:31;;;;;;;;;;;;;;;14.95;42.99;100797.56;5041291;28;19923;-46
2021/12/26 06:38:56;;;;;;;;;;;;;;;14.95;43.06;100792.19;5044028;28;19920;-48
2021/12/26 06:41:22;;;;;;;;;;;;;;;14.95;43.07;100787.72;5043800;28;19913;-45
2021/12/26 06:43:47;;;;;;;;;;;;;;;14.96;43.17;100789.41;5043513;28;19923;-49
2021/12/26 06:46:14;;;;;;;;;;;;;;;14.96;43.15;100788.56;5043655;28;19940;-48
2021/12/26 06:48:39;;;;;;;;;;;;;;;14.96;43.06;100778.69;5040026;28;19914;-46
2021/12/26 06:51:04;;;;;;;;;;;;;;;14.97;43.09;100782.22;5043359;28;19913;-46
2021/12/26 06:53:30;;;;;;;;;;;;;;;14.97;43.08;100788.41;5043429;28;19917;-44
2021/12/26 06:55:55;;;;;;;;;;;;;;;14.98;43.19;100790.09;5040366;28;19921;-49
2021/12/26 06:58:20;;;;;;;;;;;;;;;14.98;43.19;100784.72;5043372;28;19920;-47
2021/12/26 07:00:46;;;;;;;;;;;;;;;14.98;43.07;100787.41;5043178;28;19924;-49
2021/12/26 07:03:11;;;;;;;;;;;;;;;14.98;43.14;100784.72;5056744;28;19967;-45
2021/12/26 07:05:36;;;;;;;;;;;;;;;14.98;43.17;100784.72;5042831;28;19921;-46
2021/12/26 07:08:01;;;;;;;;;;;;;;;14.99;43.13;100778.41;5042875;28;19917;-48
2021/12/26 07:10:27;;;;;;;;;;;;;;;15.00;43.17;100776.56;5042896;28;20603;-47
2021/12/26 07:12:52;;;;;;;;;;;;;;;15.01;43.10;100778.25;5042807;28;20420;-50
2021/12/26 07:15:17;;;;;;;;;;;;;;;15.02;43.16;100784.44;5041202;28;20362;-45
2021/12/26 07:17:42;;;;;;;;;;;;;;;15.02;43.20;100784.44;5037675;28;20060;-48
2021/12/26 07:20:08;;;;;;;;;;;;;;;15.02;43.19;100781.78;5042856;28;19917;-48
2021/12/26 07:22:33;;;;;;;;;;;;;;;15.03;43.18;100786.97;5039532;28;19924;-49
2021/12/26 07:24:59;;;;;;;;;;;;;;;15.03;43.06;100781.59;5042440;28;19921;-49
2021/12/26 07:27:24;;;;;;;;;;;;;;;15.04;43.09;100779.78;5042523;28;19924;-45
2021/12/26 07:29:49;;;;;;;;;;;;;;;15.06;43.07;100781.31;5042472;28;19917;-48
2021/12/26 07:32:14;;;;;;;;;;;;;;;15.13;43.00;100781.59;5041975;28;19921;-47
2021/12/26 07:34:40;;;;;;;;;;;;;;;15.20;42.87;100793.38;5041456;28;19921;-51
2021/12/26 07:37:05;;;;;;;;;;;;;;;15.24;42.81;100794.78;5042571;28;19956;-47
2021/12/26 07:39:30;;;;;;;;;;;;;;;15.29;42.66;100792.50;5042226;28;19924;-47
2021/12/26 07:41:56;;;;;;;;;;;;;;;15.32;42.59;100792.22;5042130;28;19921;-50
2021/12/26 07:44:21;;;;;;;;;;;;;;;15.36;42.44;100790.94;5041888;28;19929;-47
2021/12/26 07:46:46;;;;;;;;;;;;;;;15.38;42.48;100802.34;5042290;28;19921;-47
2021/12/26 07:49:11;;;;;;;;;;;;;;;15.40;42.37;100788.81;5041839;28;19917;-47
2021/12/26 07:51:36;;;;;;;;;;;;;;;15.42;42.29;100792.16;5041990;28;19917;-47
2021/12/26 07:54:02;;;;;;;;;;;;;;;15.43;42.36;100786.69;5040034;28;19917;-48
2021/12/26 07:56:30;;;;;;;;;;;;;;;15.46;42.26;100786.38;5039010;28;19917;-47
2021/12/26 07:58:55;;;;;;;;;;;;;;;15.49;42.16;100794.09;5042283;28;19924;-45
2021/12/26 08:01:20;;;;;;;;;;;;;;;15.53;42.04;100785.78;5036344;28;20008;-45
2021/12/26 08:03:46;;;;;;;;;;;;;;;15.55;41.98;100786.44;5040299;28;20554;-48
2021/12/26 08:06:18;;;;;;;;;;;;;;;15.56;41.95;100783.63;5042228;28;19996;-50
2021/12/26 08:08:44;;;;;;;;;;;;;;;15.58;42.00;100783.47;5047363;28;19924;-45
2021/12/26 08:11:09;;;;;;;;;;;;;;;15.59;41.88;100779.81;5041988;28;19917;-48
2021/12/26 08:13:34;;;;;;;;;;;;;;;15.60;41.89;100784.19;5041689;28;20389;-45
2021/12/26 08:16:00;;;;;;;;;;;;;;;15.62;41.94;100792.91;5042013;28;19921;-48
2021/12/26 08:18:25;;;;;;;;;;;;;;;15.65;41.84;100789.97;5040815;28;19936;-46
2021/12/26 08:20:50;;;;;;;;;;;;;;;15.66;41.81;100788.97;5042059;28;19917;-48
2021/12/26 08:23:15;;;;;;;;;;;;;;;15.67;41.91;100783.47;5041662;28;19936;-50
2021/12/26 08:25:40;;;;;;;;;;;;;;;15.70;41.66;100782.31;5041772;28;20012;-45
2021/12/26 08:28:06;;;;;;;;;;;;;;;15.70;41.59;100779.63;5040464;28;19921;-50
2021/12/26 08:30:31;;;;;;;;;;;;;;;15.71;41.62;100784.84;5026071;28;19952;-47
2021/12/26 08:32:59;;;;;;;;;;;;;;;15.72;41.53;100786.53;5035459;28;19956;-51
2021/12/26 08:35:25;;;;;;;;;;;;;;;15.74;41.54;100783.69;5034482;28;19923;-47
2021/12/26 08:37:50;;;;;;;;;;;;;;;15.75;41.40;100793.44;5035923;28;19917;-46
2021/12/26 08:40:15;;;;;;;;;;;;;;;15.77;41.44;100796.81;5053092;28;19966;-46
2021/12/26 08:42:41;;;;;;;;;;;;;;;15.82;41.33;100793.69;5035940;28;20442;-46
2021/12/26 08:45:06;;;;;;;;;;;;;;;15.84;41.30;100789.84;5050644;28;20019;-47
2021/12/26 08:47:31;;;;;;;;;;;;;;;15.91;41.12;100792.75;5036206;28;20000;-50
2021/12/26 08:49:56;;;;;;;;;;;;;;;16.00;40.94;100803.41;5039549;28;19948;-49
2021/12/26 08:52:22;;;;;;;;;;;;;;;16.14;40.89;100803.88;5037236;28;19967;-44
2021/12/26 08:54:47;;;;;;;;;;;;;;;16.31;40.77;100800.38;5037888;28;20375;-44
2021/12/26 08:57:12;;;;;;;;;;;;;;;16.54;40.18;100798.03;5040387;28;19939;-47
2021/12/26 08:59:37;;;;;;;;;;;;;;;16.71;39.91;100799.84;5038861;28;19946;-44
2021/12/26 09:02:03;;;;;;;;;;;;;;;16.79;39.70;100801.78;5033545;28;19945;-44
2021/12/26 09:04:29;;;;;;;;;;;;;;;16.66;39.73;100777.16;5037610;28;19952;-44
2021/12/26 09:06:54;;;;;;;;;;;;;;;16.70;39.63;100790.13;5041821;28;19960;-51
2021/12/26 09:09:19;;;;;;;;;;;;;;;16.66;39.68;100790.59;5057365;28;19929;-46
2021/12/26 09:11:44;;;;;;;;;;;;;;;16.58;39.81;100802.09;5036019;28;19917;-46
2021/12/26 09:14:10;;;;;;;;;;;;;;;16.51;39.77;100803.72;5037837;28;19924;-48
2021/12/26 09:16:35;;;;;;;;;;;;;;;16.47;40.09;100803.19;5038885;28;19921;-44
2021/12/26 09:19:01;;;;;;;;;;;;;;;16.44;40.11;100798.16;5035141;28;19924;-49
2021/12/26 09:21:26;;;;;;;;;;;;;;;16.42;40.18;100793.91;5042108;28;20008;-45
2021/12/26 09:23:51;;;;;;;;;;;;;;;16.41;40.23;100784.19;5037363;28;19921;-48
2021/12/26 09:26:16;;;;;;;;;;;;;;;16.39;40.24;100786.16;5034787;28;19922;-45
2021/12/26 09:28:41;;;;;;;;;;;;;;;16.39;40.20;100788.84;5041510;28;19921;-45
2021/12/26 09:31:07;;;;;;;;;;;;;;;16.37;40.08;100786.34;5039753;28;19971;-46
2021/12/26 09:33:32;;;;;;;;;;;;;;;16.36;40.16;100783.81;5039992;28;19924;-46
2021/12/26 09:35:57;;;;;;;;;;;;;;;16.34;40.07;100777.75;5042717;28;19917;-45
2021/12/26 09:38:22;;;;;;;;;;;;;;;16.33;40.17;100782.28;5037648;28;19928;-51
2021/12/26 09:40:48;;;;;;;;;;;;;;;16.32;40.11;100791.31;5041903;28;19936;-47
2021/12/26 09:43:13;;;;;;;;;;;;;;;16.32;40.13;100790.50;5042551;28;19917;-49
2021/12/26 09:45:38;;;;;;;;;;;;;;;16.31;40.02;100786.97;5043028;28;19913;-48
2021/12/26 09:48:03;;;;;;;;;;;;;;;16.31;40.13;100783.41;5037120;28;20280;-46
2021/12/26 09:50:28;;;;;;;;;;;;;;;16.31;39.95;100786.97;5039032;28;19917;-48
2021/12/26 09:52:54;;;;;;;;;;;;;;;16.29;39.95;100794.31;5038852;28;19918;-49
2021/12/26 09:55:19;;;;;;;;;;;;;;;16.28;40.03;100781.91;5038101;28;19917;-46
2021/12/26 09:57:45;;;;;;;;;;;;;;;16.29;40.02;100783.56;5034461;28;19921;-50
2021/12/26 10:00:20;;;;;;;;;;;;;;;16.29;40.19;100783.56;5053338;28;19948;-47
2021/12/26 10:02:46;;;;;;;;;;;;;;;16.33;40.26;100781.44;5027253;28;19960;-45
2021/12/26 10:05:11;;;;;;;;;;;;;;;16.33;40.23;100768.03;5036173;28;19924;-48
2021/12/26 10:07:36;;;;;;;;;;;;;;;16.35;40.26;100763.31;5037728;28;19917;-45
2021/12/26 10:10:04;;;;;;;;;;;;;;;16.36;40.15;100762.34;5028990;28;20341;-46
2021/12/26 10:12:29;;;;;;;;;;;;;;;16.36;40.22;100757.81;4152628;28;10000636;-44
2021/12/26 10:14:54;;;;;;;;;;;;;;;16.38;40.24;100761.19;4994135;28;19969;-50
2021/12/26 10:17:23;;;;;;;;;;;;;;;16.40;40.41;100753.84;4982691;28;19977;-47
2021/12/26 10:19:49;;;;;;;;;;;;;;;16.42;40.38;100748.28;4983287;28;19949;-47
2021/12/26 10:22:15;;;;;;;;;;;;;;;16.43;40.26;100744.59;4984154;28;19929;-46
2021/12/26 10:24:41;;;;;;;;;;;;;;;16.44;40.12;100746.31;4982695;28;19926;-46
2021/12/26 10:27:08;;;;;;;;;;;;;;;16.44;40.15;100741.78;4982135;28;19922;-42
2021/12/26 10:29:39;;;;;;;;;;;;;;;16.45;39.91;100730.03;4977989;28;19929;-45
2021/12/26 10:32:11;;;;;;;;;;;;;;;16.45;39.96;100732.72;4982897;28;20397;-45
2021/12/26 10:34:38;;;;;;;;;;;;;;;16.47;39.90;100732.56;4980209;28;19918;-46
2021/12/26 10:37:05;;;;;;;;;;;;;;;16.48;39.95;100734.25;4982134;28;19918;-47
2021/12/26 10:39:32;;;;;;;;;;;;;;;16.47;39.83;100728.03;4982711;28;20438;-43
2021/12/26 10:41:59;;;;;;;;;;;;;;;16.47;39.75;100727.19;4982831;28;20395;-43
2021/12/26 10:44:26;;;;;;;;;;;;;;;16.48;39.84;100744.97;4981911;28;19922;-45
2021/12/26 10:46:53;;;;;;;;;;;;;;;16.47;39.89;100736.09;4981359;28;19981;-49
2021/12/26 10:49:44;;;;;;;;;;;;;;;16.48;39.84;100729.75;4981946;28;19957;-43
2021/12/26 10:52:11;;;;;;;;;;;;;;;16.49;39.99;100728.75;4981438;28;19918;-47
2021/12/26 10:54:41;;;;;;;;;;;;;;;16.51;39.96;100731.25;4982672;28;19926;-43
2021/12/26 10:57:11;;;;;;;;;;;;;;;16.54;39.88;100722.06;4979217;28;20305;-45
2021/12/26 10:59:36;;;;;;;;;;;;;;;16.56;39.95;100717.34;4979667;28;19919;-42
2021/12/26 11:02:02;;;;;;;;;;;;;;;16.59;39.79;100717.06;4982676;28;19918;-46
2021/12/26 11:04:27;;;;;;;;;;;;;;;16.62;39.78;100720.25;4981286;28;20673;-45
2021/12/26 11:06:59;;;;;;;;;;;;;;;16.67;39.77;100704.53;4980387;28;20929;-44
2021/12/26 11:09:25;;;;;;;;;;;;;;;16.71;39.72;100708.56;4980326;28;19925;-45
2021/12/26 11:11:57;;;;;;;;;;;;;;;16.76;39.56;100708.13;4978278;28;19921;-44
2021/12/26 11:14:24;;;;;;;;;;;;;;;16.79;39.60;100701.59;4982360;28;19922;-43
2021/12/26 11:16:49;;;;;;;;;;;;;;;16.81;39.67;100696.91;4980813;28;19953;-43
2021/12/26 11:19:15;;;;;;;;;;;;;;;16.81;39.75;100705.78;4981508;28;20307;-42
2021/12/26 11:21:40;;;;;;;;;;;;;;;16.81;39.79;100689.69;4982653;28;19925;-43
2021/12/26 11:24:05;;;;;;;;;;;;;;;16.82;39.82;100690.53;4981154;28;19930;-43
2021/12/26 11:26:31;;;;;;;;;;;;;;;16.82;39.98;100683.34;4981939;28;20647;-43
2021/12/26 11:28:56;;;;;;;;;;;;;;;16.83;39.91;100682.31;4980839;28;19922;-44
2021/12/26 11:31:22;;;;;;;;;;;;;;;16.83;40.06;100674.28;4981955;28;19929;-44
2021/12/26 11:33:55;;;;;;;;;;;;;;;16.85;40.03;100677.63;4980595;28;20044;-48
2021/12/26 11:36:21;;;;;;;;;;;;;;;16.86;40.10;100684.66;4982434;28;19922;-49
2021/12/26 11:38:46;;;;;;;;;;;;;;;16.87;40.18;100685.53;4980108;28;19976;-43
2021/12/26 11:41:24;;;;;;;;;;;;;;;16.88;40.05;100677.31;4980990;28;19925;-42
2021/12/26 11:43:55;;;;;;;;;;;;;;;16.88;40.05;100674.63;4978820;28;19926;-49
2021/12/26 11:46:21;;;;;;;;;;;;;;;16.89;40.08;100678.16;4981126;28;19922;-41
2021/12/26 11:49:08;;;;;;;;;;;;;;;16.70;40.19;100641.63;4982733;28;19984;-44
2021/12/26 11:51:36;;;;;;;;;;;;;;;16.90;40.05;100671.78;4988006;28;19918;-44
2021/12/26 11:54:20;;;;;;;;;;;;;;;16.90;40.11;100664.56;4988360;28;19973;-45
2021/12/26 11:57:00;;;;;;;;;;;;;;;16.91;40.13;100655.50;4983162;28;19918;-44
2021/12/26 11:59:30;;;;;;;;;;;;;;;16.93;40.18;100658.88;5014250;28;19925;-45
2021/12/26 12:01:55;;;;;;;;;;;;;;;16.93;40.06;100658.03;4982447;28;19917;-43
2021/12/26 12:04:22;;;;;;;;;;;;;;;16.95;39.92;100661.41;4982736;28;20021;-46
2021/12/26 12:06:48;;;;;;;;;;;;;;;16.96;39.82;100666.59;4983658;28;19929;-43
2021/12/26 12:09:23;;;;;;;;;;;;;;;16.96;39.92;100658.56;4983732;28;19918;-44
2021/12/26 12:11:55;;;;;;;;;;;;;;;17.00;39.97;100661.75;4976004;28;19924;-44
2021/12/26 12:14:40;;;;;;;;;;;;;;;17.03;40.00;100657.88;4983563;28;19949;-45
2021/12/26 12:17:12;;;;;;;;;;;;;;;17.03;39.87;100647.97;4983183;28;19949;-44
2021/12/26 12:19:37;;;;;;;;;;;;;;;17.04;39.73;100652.38;4983096;28;20013;-44
2021/12/26 12:22:05;;;;;;;;;;;;;;;17.06;39.89;100644.16;5018724;28;19925;-46
2021/12/26 12:24:30;;;;;;;;;;;;;;;17.07;39.68;100648.50;4987438;28;19926;-48
2021/12/26 12:26:56;;;;;;;;;;;;;;;17.10;39.75;100640.13;4987455;28;19922;-48
2021/12/26 12:29:21;;;;;;;;;;;;;;;17.11;39.73;100650.69;4987711;28;19953;-45
2021/12/26 12:31:47;;;;;;;;;;;;;;;17.15;39.48;100651.22;4987353;28;19918;-44
2021/12/26 12:34:15;;;;;;;;;;;;;;;17.14;39.66;100650.38;4985715;28;19925;-44